createdAt,value
2019-05-26T00:00:09.472Z,19.16
2019-05-26T00:02:38.833Z,19.25
2019-05-26T00:05:08.748Z,18.67
2019-05-26T00:07:38.264Z,18.28
2019-05-26T00:10:08.526Z,18.10
2019-05-26T00:12:38.113Z,18.36
2019-05-26T00:15:08.602Z,18.53
2019-05-26T00:17:38.007Z,18.61
2019-05-26T00:20:08.734Z,18.86
2019-05-26T00:22:38.180Z,19.12
2019-05-26T00:25:08.015Z,18.96
2019-05-26T00:27:37.457Z,19.10
2019-05-26T00:30:07.064Z,18.95
2019-05-26T00:32:36.460Z,19.15
2019-05-26T00:35:06.274Z,19.13
2019-05-26T00:37:48.428Z,19.10
2019-05-26T00:40:07.116Z,19.37
2019-05-26T00:42:36.594Z,19.42
2019-05-26T00:45:06.077Z,19.55
2019-05-26T00:47:35.529Z,19.19
2019-05-26T00:50:05.730Z,19.09
2019-05-26T00:52:35.270Z,18.95
2019-05-26T00:55:04.878Z,19.10
2019-05-26T00:57:34.299Z,18.99
2019-05-26T01:00:03.835Z,18.98
2019-05-26T01:02:33.288Z,18.75
2019-05-26T01:05:02.694Z,18.29
2019-05-26T01:07:32.101Z,18.42
2019-05-26T01:10:01.540Z,18.47
2019-05-26T01:12:31.017Z,18.32
2019-05-26T01:15:00.415Z,18.30
2019-05-26T01:17:30.117Z,18.04
2019-05-26T01:19:59.521Z,18.24
2019-05-26T01:22:28.991Z,18.42
2019-05-26T01:24:58.358Z,18.17
2019-05-26T01:27:27.740Z,18.16
2019-05-26T01:29:57.152Z,17.73
2019-05-26T01:34:56.083Z,17.89
2019-05-26T01:37:25.679Z,17.97
2019-05-26T01:39:55.157Z,17.86
2019-05-26T01:42:24.679Z,17.98
2019-05-26T01:44:54.122Z,18.05
2019-05-26T01:47:23.605Z,18.00
2019-05-26T01:49:53.093Z,18.05
2019-05-26T01:52:22.549Z,18.05
2019-05-26T01:54:51.999Z,18.10
2019-05-26T01:57:21.570Z,18.01
2019-05-26T01:59:51.011Z,17.86
2019-05-26T02:02:20.533Z,17.93
2019-05-26T02:04:50.038Z,17.95
2019-05-26T02:07:19.480Z,17.91
2019-05-26T02:09:48.976Z,17.95
2019-05-26T02:12:18.513Z,17.91
2019-05-26T02:14:47.916Z,17.83
2019-05-26T02:17:17.386Z,17.85
2019-05-26T02:19:46.836Z,17.84
2019-05-26T02:22:16.383Z,17.72
2019-05-26T02:24:45.855Z,17.57
2019-05-26T02:27:15.266Z,17.67
2019-05-26T02:29:44.718Z,17.73
2019-05-26T02:32:14.158Z,17.60
2019-05-26T02:34:43.610Z,17.57
2019-05-26T02:37:13.090Z,17.53
2019-05-26T02:39:42.633Z,17.52
2019-05-26T02:42:12.181Z,17.47
2019-05-26T02:44:41.650Z,17.29
2019-05-26T02:47:11.169Z,16.91
2019-05-26T02:49:40.673Z,16.99
2019-05-26T02:52:10.209Z,16.87
2019-05-26T02:54:39.642Z,16.83
2019-05-26T02:57:09.121Z,16.87
2019-05-26T02:59:38.648Z,16.82
2019-05-26T03:02:08.202Z,16.89
2019-05-26T03:04:37.676Z,16.95
2019-05-26T03:07:07.231Z,16.89
2019-05-26T03:09:41.792Z,16.84
2019-05-26T03:12:11.317Z,16.94
2019-05-26T03:14:43.116Z,16.82
2019-05-26T03:17:12.560Z,16.73
2019-05-26T03:19:42.034Z,16.66
2019-05-26T03:22:13.036Z,16.59
2019-05-26T03:24:44.063Z,16.54
2019-05-26T03:27:13.520Z,16.75
2019-05-26T03:29:43.047Z,16.57
2019-05-26T03:32:12.520Z,16.49
2019-05-26T03:34:41.961Z,16.88
2019-05-26T03:37:11.457Z,17.15
2019-05-26T03:39:45.503Z,17.54
2019-05-26T03:42:12.156Z,17.54
2019-05-26T03:44:41.701Z,17.33
2019-05-26T03:47:15.704Z,17.45
2019-05-26T03:49:42.404Z,17.49
2019-05-26T03:52:11.962Z,17.63
2019-05-26T03:54:41.422Z,17.41
2019-05-26T03:57:10.857Z,16.96
2019-05-26T03:59:40.294Z,16.83
2019-05-26T04:02:09.772Z,16.37
2019-05-26T04:04:39.261Z,16.44
2019-05-26T04:07:08.776Z,16.75
2019-05-26T04:09:38.317Z,16.65
2019-05-26T04:12:07.825Z,16.89
2019-05-26T04:14:37.376Z,16.67
2019-05-26T04:17:06.904Z,16.24
2019-05-26T04:19:36.429Z,16.18
2019-05-26T04:22:05.953Z,16.65
2019-05-26T04:24:35.525Z,16.89
2019-05-26T04:27:05.035Z,17.05
2019-05-26T04:29:34.566Z,16.96
2019-05-26T04:32:04.410Z,16.70
2019-05-26T04:34:33.877Z,16.80
2019-05-26T04:37:03.417Z,16.48
2019-05-26T04:39:32.904Z,16.65
2019-05-26T04:42:02.381Z,16.66
2019-05-26T04:44:31.913Z,16.59
2019-05-26T04:47:01.394Z,16.72
2019-05-26T04:49:30.823Z,16.75
2019-05-26T04:52:00.579Z,16.61
2019-05-26T04:54:30.124Z,16.78
2019-05-26T04:56:59.565Z,16.58
2019-05-26T04:59:29.104Z,16.61
2019-05-26T05:01:58.550Z,16.66
2019-05-26T05:04:28.105Z,16.70
2019-05-26T05:06:57.668Z,16.34
2019-05-26T05:09:27.157Z,16.53
2019-05-26T05:11:56.647Z,16.59
2019-05-26T05:14:26.178Z,16.58
2019-05-26T05:16:55.695Z,16.78
2019-05-26T05:19:25.188Z,16.56
2019-05-26T05:21:54.715Z,16.69
2019-05-26T05:24:24.163Z,16.66
2019-05-26T05:26:53.662Z,16.73
2019-05-26T05:29:23.210Z,16.70
2019-05-26T05:31:52.753Z,16.32
2019-05-26T05:34:22.217Z,16.60
2019-05-26T05:36:51.683Z,16.50
2019-05-26T05:39:21.127Z,16.30
2019-05-26T05:41:50.579Z,16.58
2019-05-26T05:44:20.054Z,16.54
2019-05-26T05:46:49.593Z,16.69
2019-05-26T05:49:19.053Z,16.62
2019-05-26T05:51:48.525Z,16.89
2019-05-26T05:54:17.951Z,16.44
2019-05-26T05:56:47.413Z,16.70
2019-05-26T05:59:16.950Z,16.53
2019-05-26T06:01:46.354Z,16.49
2019-05-26T06:04:15.833Z,16.74
2019-05-26T06:06:45.545Z,16.67
2019-05-26T06:09:15.166Z,17.15
2019-05-26T06:11:44.564Z,16.65
2019-05-26T06:14:14.099Z,16.59
2019-05-26T06:16:43.550Z,16.68
2019-05-26T06:19:13.069Z,16.79
2019-05-26T06:21:42.478Z,16.58
2019-05-26T06:24:11.969Z,16.57
2019-05-26T06:26:41.424Z,16.88
2019-05-26T06:29:10.867Z,16.91
2019-05-26T06:31:40.253Z,16.85
2019-05-26T06:34:09.735Z,16.95
2019-05-26T06:36:39.245Z,17.29
2019-05-26T06:39:09.101Z,17.40
2019-05-26T06:41:38.551Z,17.82
2019-05-26T06:44:08.047Z,17.85
2019-05-26T06:46:37.481Z,18.01
2019-05-26T06:49:06.931Z,17.69
2019-05-26T06:51:36.382Z,17.63
2019-05-26T06:54:05.862Z,17.64
2019-05-26T06:56:38.347Z,17.87
2019-05-26T06:59:07.852Z,17.88
2019-05-26T07:01:37.378Z,17.99
2019-05-26T07:04:07.011Z,17.91
2019-05-26T07:06:36.476Z,18.07
2019-05-26T07:09:07.134Z,18.11
2019-05-26T07:11:50.504Z,17.98
2019-05-26T07:14:07.894Z,17.94
2019-05-26T07:16:38.892Z,18.24
2019-05-26T07:19:08.479Z,18.13
2019-05-26T07:21:37.981Z,18.15
2019-05-26T07:24:07.477Z,18.19
2019-05-26T07:26:36.913Z,18.27
2019-05-26T07:29:06.388Z,18.22
2019-05-26T07:31:35.762Z,18.33
2019-05-26T07:34:05.297Z,18.39
2019-05-26T07:36:34.700Z,18.49
2019-05-26T07:39:06.133Z,18.52
2019-05-26T07:41:35.673Z,18.57
2019-05-26T07:44:05.388Z,18.77
2019-05-26T07:46:37.608Z,18.74
2019-05-26T07:49:07.063Z,18.77
2019-05-26T07:51:42.003Z,18.89
2019-05-26T07:54:24.649Z,18.93
2019-05-26T07:56:42.950Z,18.96
2019-05-26T07:59:12.537Z,18.96
2019-05-26T08:01:42.095Z,18.94
2019-05-26T08:04:11.709Z,19.02
2019-05-26T08:06:41.344Z,19.01
2019-05-26T08:09:10.951Z,19.06
2019-05-26T08:11:40.613Z,19.09
2019-05-26T08:14:10.220Z,19.11
2019-05-26T08:16:39.762Z,19.17
2019-05-26T08:19:09.447Z,19.25
2019-05-26T08:21:39.249Z,19.31
2019-05-26T08:24:08.956Z,19.34
2019-05-26T08:26:38.788Z,19.44
2019-05-26T08:29:08.376Z,19.49
2019-05-26T08:31:38.041Z,19.58
2019-05-26T08:34:07.750Z,19.69
2019-05-26T08:36:37.795Z,19.76
2019-05-26T08:39:08.746Z,19.78
2019-05-26T08:41:38.801Z,19.86
2019-05-26T08:44:08.659Z,19.92
2019-05-26T08:46:38.254Z,19.95
2019-05-26T08:49:08.103Z,20.06
2019-05-26T08:51:38.086Z,20.21
2019-05-26T08:54:07.808Z,20.20
2019-05-26T08:56:37.676Z,20.32
2019-05-26T08:59:07.400Z,20.48
2019-05-26T09:01:37.189Z,20.57
2019-05-26T09:04:06.857Z,20.62
2019-05-26T09:06:36.489Z,20.76
2019-05-26T09:09:08.094Z,20.86
2019-05-26T09:11:37.937Z,20.90
2019-05-26T09:14:07.615Z,21.10
2019-05-26T09:16:37.262Z,21.60
2019-05-26T09:19:06.963Z,21.86
2019-05-26T09:21:36.841Z,21.58
2019-05-26T09:24:06.521Z,21.85
2019-05-26T09:26:36.288Z,21.95
2019-05-26T09:29:06.207Z,22.12
2019-05-26T09:31:35.927Z,22.08
2019-05-26T09:34:05.638Z,22.19
2019-05-26T09:36:35.223Z,22.18
2019-05-26T09:39:07.388Z,22.27
2019-05-26T09:41:36.995Z,22.18
2019-05-26T09:44:06.791Z,22.41
2019-05-26T09:46:36.413Z,22.73
2019-05-26T09:49:06.038Z,22.47
2019-05-26T09:51:35.705Z,22.71
2019-05-26T09:54:05.391Z,22.38
2019-05-26T09:56:35.013Z,22.40
2019-05-26T09:59:04.731Z,22.27
2019-05-26T10:01:34.427Z,22.27
2019-05-26T10:04:04.043Z,22.31
2019-05-26T10:06:33.784Z,22.28
2019-05-26T10:09:04.825Z,22.38
2019-05-26T10:11:34.364Z,22.32
2019-05-26T10:14:04.090Z,22.37
2019-05-26T10:16:33.706Z,22.83
2019-05-26T10:19:03.332Z,23.07
2019-05-26T10:21:32.913Z,22.96
2019-05-26T10:24:02.577Z,22.96
2019-05-26T10:26:32.150Z,23.05
2019-05-26T10:29:01.778Z,22.88
2019-05-26T10:31:31.435Z,22.86
2019-05-26T10:34:01.231Z,23.15
2019-05-26T10:36:30.960Z,23.05
2019-05-26T10:39:00.680Z,23.12
2019-05-26T10:41:30.284Z,23.31
2019-05-26T10:43:59.912Z,23.21
2019-05-26T10:46:29.527Z,23.19
2019-05-26T10:49:00.801Z,23.36
2019-05-26T10:51:30.507Z,23.35
2019-05-26T10:54:00.286Z,23.35
2019-05-26T10:56:30.214Z,24.35
2019-05-26T10:59:01.286Z,24.32
2019-05-26T11:01:30.954Z,24.26
2019-05-26T11:04:00.696Z,24.40
2019-05-26T11:06:30.371Z,24.62
2019-05-26T11:09:00.020Z,24.24
2019-05-26T11:11:29.586Z,24.24
2019-05-26T11:14:03.013Z,24.35
2019-05-26T11:16:30.685Z,24.38
2019-05-26T11:19:00.312Z,24.37
2019-05-26T11:21:30.032Z,24.42
2019-05-26T11:23:59.836Z,24.37
2019-05-26T11:26:29.453Z,24.24
2019-05-26T11:28:59.045Z,24.35
2019-05-26T11:31:28.705Z,24.51
2019-05-26T11:33:58.316Z,24.69
2019-05-26T11:36:27.886Z,24.75
2019-05-26T11:38:57.606Z,24.60
2019-05-26T11:41:27.139Z,24.38
2019-05-26T11:43:56.843Z,24.36
2019-05-26T11:46:26.508Z,24.58
2019-05-26T11:48:56.129Z,24.66
2019-05-26T11:51:25.767Z,24.81
2019-05-26T11:53:55.464Z,25.00
2019-05-26T11:56:25.040Z,25.32
2019-05-26T11:58:54.627Z,25.34
2019-05-26T12:01:24.250Z,26.71
2019-05-26T12:03:53.820Z,27.18
2019-05-26T12:06:23.411Z,26.19
2019-05-26T12:08:52.955Z,26.10
2019-05-26T12:11:22.598Z,26.48
2019-05-26T12:13:52.338Z,26.03
2019-05-26T12:16:21.900Z,25.94
2019-05-26T12:18:51.521Z,26.00
2019-05-26T12:21:21.077Z,26.05
2019-05-26T12:23:54.721Z,26.22
2019-05-26T12:26:22.056Z,26.33
2019-05-26T12:28:51.605Z,26.30
2019-05-26T12:31:21.273Z,26.68
2019-05-26T12:33:50.940Z,27.19
2019-05-26T12:36:20.490Z,28.90
2019-05-26T12:38:52.826Z,28.10
2019-05-26T12:41:22.752Z,27.50
2019-05-26T12:43:52.373Z,27.50
2019-05-26T12:46:21.926Z,27.22
2019-05-26T12:48:51.598Z,27.22
2019-05-26T12:51:21.221Z,27.31
2019-05-26T12:53:50.968Z,27.30
2019-05-26T12:56:21.139Z,27.73
2019-05-26T12:58:50.790Z,28.02
2019-05-26T13:01:20.452Z,27.80
2019-05-26T13:03:49.990Z,27.80
2019-05-26T13:06:19.603Z,27.28
2019-05-26T13:08:49.137Z,27.37
2019-05-26T13:11:18.750Z,27.37
2019-05-26T13:13:49.893Z,27.97
2019-05-26T13:16:19.567Z,28.38
2019-05-26T13:18:49.292Z,28.52
2019-05-26T13:21:18.949Z,28.60
2019-05-26T13:23:48.624Z,29.49
2019-05-26T13:26:18.277Z,29.49
2019-05-26T13:28:48.005Z,29.27
2019-05-26T13:31:17.733Z,29.05
2019-05-26T13:33:47.369Z,28.76
2019-05-26T13:36:17.027Z,28.27
2019-05-26T13:38:46.729Z,28.27
2019-05-26T13:41:16.505Z,28.83
2019-05-26T13:43:46.096Z,28.02
2019-05-26T13:46:15.785Z,28.09
2019-05-26T13:48:45.394Z,28.12
2019-05-26T13:51:15.051Z,28.12
2019-05-26T13:53:44.659Z,27.67
2019-05-26T13:56:14.301Z,27.87
2019-05-26T13:58:43.870Z,27.76
2019-05-26T14:01:13.483Z,27.76
2019-05-26T14:03:43.057Z,27.74
2019-05-26T14:06:12.584Z,28.24
2019-05-26T14:08:42.155Z,28.24
2019-05-26T14:11:11.730Z,27.90
2019-05-26T14:13:41.300Z,27.58
2019-05-26T14:16:10.816Z,28.31
2019-05-26T14:18:42.020Z,28.14
2019-05-26T14:21:11.612Z,28.41
2019-05-26T14:23:41.151Z,28.72
2019-05-26T14:26:10.677Z,28.88
2019-05-26T14:28:40.169Z,28.89
2019-05-26T14:31:09.666Z,28.98
2019-05-26T14:33:39.188Z,28.99
2019-05-26T14:36:08.692Z,29.27
2019-05-26T14:38:43.105Z,28.96
2019-05-26T14:41:09.491Z,28.76
2019-05-26T14:43:38.985Z,28.31
2019-05-26T14:46:08.661Z,28.56
2019-05-26T14:48:38.177Z,28.72
2019-05-26T14:51:07.700Z,28.88
2019-05-26T14:53:37.293Z,29.08
2019-05-26T14:56:06.816Z,29.30
2019-05-26T14:58:36.466Z,29.27
2019-05-26T15:01:06.069Z,29.32
2019-05-26T15:03:35.670Z,29.70
2019-05-26T15:06:06.314Z,29.73
2019-05-26T15:08:36.020Z,29.71
2019-05-26T15:11:05.705Z,29.81
2019-05-26T15:13:35.331Z,29.67
2019-05-26T15:16:09.722Z,29.73
2019-05-26T15:18:36.255Z,29.69
2019-05-26T15:21:05.756Z,29.71
2019-05-26T15:23:35.375Z,29.72
2019-05-26T15:26:05.608Z,29.77
2019-05-26T15:28:35.559Z,29.90
2019-05-26T15:31:05.135Z,29.87
2019-05-26T15:33:34.665Z,29.65
2019-05-26T15:36:04.227Z,29.38
2019-05-26T15:38:42.903Z,29.81
2019-05-26T15:41:06.543Z,29.89
2019-05-26T15:43:36.073Z,29.85
2019-05-26T15:46:05.717Z,29.87
2019-05-26T15:48:35.349Z,29.76
2019-05-26T15:51:05.287Z,30.16
2019-05-26T15:53:34.784Z,29.94
2019-05-26T15:56:04.447Z,29.88
2019-05-26T15:58:34.008Z,29.83
2019-05-26T16:01:03.493Z,29.55
2019-05-26T16:03:33.020Z,29.55
2019-05-26T16:06:02.516Z,29.66
2019-05-26T16:08:32.018Z,29.73
2019-05-26T16:11:01.549Z,29.70
2019-05-26T16:13:31.034Z,29.59
2019-05-26T16:16:00.537Z,29.57
2019-05-26T16:18:30.063Z,29.65
2019-05-26T16:21:03.335Z,29.61
2019-05-26T16:23:30.850Z,29.84
2019-05-26T16:26:00.545Z,29.94
2019-05-26T16:28:30.074Z,30.30
2019-05-26T16:30:59.577Z,30.02
2019-05-26T16:33:29.188Z,29.87
2019-05-26T16:35:58.774Z,29.76
2019-05-26T16:38:28.609Z,29.79
2019-05-26T16:40:58.314Z,29.62
2019-05-26T16:43:28.519Z,29.67
2019-05-26T16:45:58.242Z,29.75
2019-05-26T16:48:27.819Z,29.60
2019-05-26T16:50:57.458Z,29.58
2019-05-26T16:53:26.969Z,29.57
2019-05-26T16:55:56.474Z,29.81
2019-05-26T16:58:26.421Z,29.59
2019-05-26T17:00:56.422Z,29.54
2019-05-26T17:03:26.022Z,29.39
2019-05-26T17:06:07.494Z,29.26
2019-05-26T17:08:26.881Z,29.26
2019-05-26T17:10:56.406Z,29.26
2019-05-26T17:13:25.925Z,29.60
2019-05-26T17:15:55.521Z,29.51
2019-05-26T17:18:25.079Z,29.75
2019-05-26T17:20:54.600Z,29.43
2019-05-26T17:23:24.182Z,29.24
2019-05-26T17:25:53.675Z,29.11
2019-05-26T17:28:23.260Z,29.09
2019-05-26T17:30:52.746Z,29.25
2019-05-26T17:33:22.268Z,29.16
2019-05-26T17:35:51.763Z,28.94
2019-05-26T17:38:21.282Z,28.94
2019-05-26T17:40:50.916Z,28.71
2019-05-26T17:43:20.444Z,28.71
2019-05-26T17:45:49.974Z,28.82
2019-05-26T17:48:19.486Z,28.95
2019-05-26T17:50:49.093Z,28.68
2019-05-26T17:53:18.708Z,28.68
2019-05-26T17:55:48.216Z,28.69
2019-05-26T17:58:17.775Z,28.59
2019-05-26T18:00:47.297Z,28.89
2019-05-26T18:03:16.921Z,28.56
2019-05-26T18:05:46.508Z,28.48
2019-05-26T18:08:16.038Z,28.40
2019-05-26T18:10:45.628Z,28.32
2019-05-26T18:13:15.163Z,28.19
2019-05-26T18:15:44.790Z,28.11
2019-05-26T18:18:14.487Z,28.10
2019-05-26T18:20:44.044Z,27.93
2019-05-26T18:23:13.626Z,27.78
2019-05-26T18:25:43.194Z,27.64
2019-05-26T18:28:12.764Z,27.52
2019-05-26T18:30:42.355Z,27.43
2019-05-26T18:33:11.871Z,27.30
2019-05-26T18:35:41.451Z,27.22
2019-05-26T18:38:11.029Z,27.12
2019-05-26T18:40:41.399Z,27.02
2019-05-26T18:43:10.939Z,26.93
2019-05-26T18:45:40.529Z,26.83
2019-05-26T18:48:10.050Z,26.74
2019-05-26T18:50:39.660Z,26.60
2019-05-26T18:53:09.171Z,26.51
2019-05-26T18:55:38.797Z,26.35
2019-05-26T18:58:08.340Z,26.25
2019-05-26T19:00:37.928Z,26.14
2019-05-26T19:03:07.540Z,26.03
2019-05-26T19:05:38.503Z,25.90
2019-05-26T19:08:08.253Z,25.81
2019-05-26T19:10:37.761Z,25.74
2019-05-26T19:13:10.579Z,25.66
2019-05-26T19:15:38.583Z,25.58
2019-05-26T19:18:19.339Z,25.50
2019-05-26T19:20:39.399Z,25.42
2019-05-26T19:23:08.883Z,25.33
2019-05-26T19:25:38.551Z,25.25
2019-05-26T19:28:08.077Z,25.23
2019-05-26T19:30:37.668Z,25.14
2019-05-26T19:33:07.272Z,25.07
2019-05-26T19:35:36.992Z,24.97
2019-05-26T19:38:06.578Z,24.88
2019-05-26T19:40:36.113Z,24.81
2019-05-26T19:43:05.714Z,24.72
2019-05-26T19:45:35.236Z,24.64
2019-05-26T19:48:04.814Z,24.62
2019-05-26T19:50:34.378Z,24.53
2019-05-26T19:53:03.880Z,24.44
2019-05-26T19:55:33.477Z,24.32
2019-05-26T19:58:03.023Z,24.25
2019-05-26T20:00:32.596Z,24.17
2019-05-26T20:03:02.118Z,24.11
2019-05-26T20:05:31.959Z,24.05
2019-05-26T20:08:01.475Z,23.99
2019-05-26T20:10:31.031Z,23.93
2019-05-26T20:13:00.508Z,23.84
2019-05-26T20:15:29.904Z,23.77
2019-05-26T20:17:59.351Z,23.67
2019-05-26T20:20:28.723Z,23.65
2019-05-26T20:23:01.954Z,23.64
2019-05-26T20:25:31.477Z,23.57
2019-05-26T20:28:00.854Z,23.46
2019-05-26T20:30:30.231Z,23.40
2019-05-26T20:32:59.735Z,23.38
2019-05-26T20:35:29.091Z,23.31
2019-05-26T20:37:58.559Z,23.18
2019-05-26T20:40:27.953Z,23.11
2019-05-26T20:42:57.322Z,23.06
2019-05-26T20:45:26.749Z,22.98
2019-05-26T20:47:56.129Z,22.94
2019-05-26T20:50:29.623Z,22.88
2019-05-26T20:52:56.795Z,22.84
2019-05-26T20:55:26.177Z,22.77
2019-05-26T20:57:55.521Z,22.75
2019-05-26T21:00:25.021Z,22.67
2019-05-26T21:02:54.522Z,22.62
2019-05-26T21:05:24.019Z,22.58
2019-05-26T21:07:53.429Z,22.49
2019-05-26T21:10:22.787Z,22.40
2019-05-26T21:12:52.221Z,22.39
2019-05-26T21:15:21.730Z,22.31
2019-05-26T21:17:51.123Z,22.25
2019-05-26T21:20:21.132Z,22.29
2019-05-26T21:22:50.529Z,22.23
2019-05-26T21:25:19.884Z,22.18
2019-05-26T21:27:49.247Z,22.12
2019-05-26T21:30:19.667Z,22.07
2019-05-26T21:32:49.016Z,22.02
2019-05-26T21:35:18.435Z,22.00
2019-05-26T21:37:47.819Z,22.02
2019-05-26T21:40:17.344Z,21.99
2019-05-26T21:42:46.798Z,21.98
2019-05-26T21:45:17.142Z,21.91
2019-05-26T21:47:46.538Z,21.85
2019-05-26T21:50:17.348Z,22.13
2019-05-26T21:52:46.772Z,22.23
2019-05-26T21:55:16.438Z,22.27
2019-05-26T21:57:45.807Z,22.26
2019-05-26T22:00:18.805Z,22.34
2019-05-26T22:02:48.309Z,22.22
2019-05-26T22:05:17.870Z,22.18
2019-05-26T22:07:47.250Z,22.14
2019-05-26T22:10:16.895Z,22.11
2019-05-26T22:12:46.338Z,22.04
2019-05-26T22:15:15.884Z,22.02
2019-05-26T22:17:45.379Z,21.98
2019-05-26T22:20:14.877Z,21.97
2019-05-26T22:22:44.238Z,22.03
2019-05-26T22:25:13.674Z,22.28
2019-05-26T22:27:43.049Z,22.33
2019-05-26T22:30:12.685Z,22.37
2019-05-26T22:32:42.078Z,22.40
2019-05-26T22:35:11.715Z,22.34
2019-05-26T22:37:41.100Z,22.36
2019-05-26T22:40:10.733Z,22.38
2019-05-26T22:42:40.141Z,22.41
2019-05-26T22:45:09.857Z,22.44
2019-05-26T22:47:39.347Z,22.33
2019-05-26T22:50:09.284Z,22.27
2019-05-26T22:52:38.759Z,22.22
2019-05-26T22:55:09.334Z,22.14
2019-05-26T22:57:38.725Z,22.24
2019-05-26T23:00:08.876Z,22.30
2019-05-26T23:02:38.231Z,22.35
2019-05-26T23:05:07.898Z,22.34
2019-05-26T23:07:37.264Z,22.36
2019-05-26T23:10:07.653Z,22.19
2019-05-26T23:12:37.050Z,22.05
2019-05-26T23:15:06.675Z,22.08
2019-05-26T23:17:36.066Z,22.02
2019-05-26T23:20:06.400Z,22.00
2019-05-26T23:22:35.864Z,22.10
2019-05-26T23:25:05.798Z,22.12
2019-05-26T23:27:35.239Z,22.06
2019-05-26T23:30:16.073Z,22.09
2019-05-26T23:32:45.542Z,22.14
2019-05-26T23:35:15.227Z,22.13
2019-05-26T23:37:44.609Z,22.06
2019-05-26T23:40:14.035Z,22.04
2019-05-26T23:42:43.470Z,22.10
2019-05-26T23:45:13.006Z,22.10
2019-05-26T23:47:42.487Z,22.11
2019-05-26T23:50:12.094Z,22.09
2019-05-26T23:52:41.475Z,22.11
2019-05-26T23:55:11.178Z,22.09
2019-05-26T23:57:40.639Z,22.00
